Zarepath, New Jersey
Current Conditions -  °F | °C
As of 3:53 PM on Monday 22 Dec 2014 (Local Time) from KSMQ Reporting Station
Haze Haze  
Wind Chill: 36°   Ceiling: 1400
Heat Index: 41°   Visibility: 5mi
Dew Point: 34°   Wind: 7mph
Humidity: 76%   Direction: 40°NE
Pressure: 30.21"   Gusts: NA
Location:  40.5013°N, 74.5325°W
Report Text: KSMQ 222053Z AUTO 04006KT 5SM HZ OVC014 05/01 A3021 RMK AO2 SLP232 T00500011 56006
Loading
Personal Weather Stations






























Interactive Weather Map New forecast layout! Learn more

10-Day Weather Forecast

Advertisements
Track Severe Weather on mobile